首页
METAR-TAF:

METAR-TAF

机场 :

柏林-泰格尔奥托·利林塔尔机场

柏林, 德国

纬度: 52-34N, 经度: 013-19E, 海拔: 37米

当前天气观测

该预报发布于20分钟前的23:50 UTC
风速11节,风向,在东转东北东南之间变化
温度 4°C
湿度 81%
气压 1010 hPa
能见度10公里或以上
阴天层高于1500英尺

METAR: EDDT 142350Z 09011KT 060V140 9999 OVC015 04/01 Q1010

时间: 01:10 (00:10 UTC)

预报

该预报发布于1小时和10分钟前的23:00 UTC
预报有效从15日的 00点(UTC)到 15日的 24点(UTC)
风速11节,风向
能見度: 9000
多云层高于1000英尺
短暂存在
从 15日的 00点(UTC)到 15日的 02点(UTC)
风速15节,风向,有时为25节阵风
短暂存在
从 15日的 00点(UTC)到 15日的 09点(UTC)
多云层高于600英尺
几率 30% :
短暂存在
从 15日的 00点(UTC)到 15日的 07点(UTC)
能見度: 4500
多云层高于400英尺
轻雾
成为
从 15日的 02点(UTC)到 15日的 05点(UTC)
风速15节,风向,有时为25节阵风
成为
从 15日的 15点(UTC)到 15日的 17点(UTC)
风速9节,风向

TAF: EDDT 142300Z 1500/1524 09011KT 9000 BKN010 TEMPO 1500/1502 09015G25KT TEMPO 1500/1509 BKN006 PROB30 TEMPO 1500/1507 4500 BR BKN004 BECMG 1502/1505 09015G25KT BECMG 1515/1517 10009KT

超过4000个机场的气象观测和天气预报(METAR&TAF报告)。

可查询的气象台以黄色和红色小点在地图上表示。

将鼠标移到小点上方,可查看气象台名称。

然后点击查看天气观测和预报。

如需切换地图:点击带黑十字的绿色按钮放大地图;点击带横线的绿色按钮缩小地图;或者点击绿色箭头查看邻近地区的地图。


METAR-TAF: